Terminal Aerodrome Forecast
Issued by NWS

Home | Current Version | Previous Version | Text Only | Print | Product List | Glossary Off
Versions: 1 2 3 4 5 6 7 8 9 10 11 12 13 14 15 16 17 18 19

991
FTUS43 KICT 290233 AAA
TAFHUT
TAF AMD
KHUT 290233Z 2903/2924 01017G25KT P6SM OVC008
     FM290600 02015G22KT 4SM SHRA OVC007
     FM291300 02018G25KT 6SM -SHRA OVC012=

USA.gov is the U.S. government's official web portal to all federal, state and local government web resources and services.